Time;durP1;ratioP1;P1;durP2;ratioP2;P2;SDS_P1;SDS_P2;PMS_P1;PMS_P2;Temp;Humidity;BMP_temperature;BMP_pressure;BME280_temperature;BME280_humidity;BME280_pressure;Samples;Min_cycle;Max_cycle;Signal;HPM_P1;HPM_P2
2021/12/27 00:02:15;;;;;;;1.20;1.10;;;;;;;3.06;100.00;95283.66;4913746;29;20214;-88
2021/12/27 00:04:43;;;;;;;1.00;0.90;;;;;;;3.06;100.00;95300.47;4924130;29;20222;-89
2021/12/27 00:07:14;;;;;;;0.80;0.80;;;;;;;3.02;100.00;95297.41;4929023;29;20322;-88
2021/12/27 00:09:42;;;;;;;1.20;1.10;;;;;;;2.92;100.00;95291.69;4926392;29;20215;-89
2021/12/27 00:12:10;;;;;;;0.90;0.90;;;;;;;2.88;100.00;95282.47;4930142;29;20297;-88
2021/12/27 00:14:37;;;;;;;1.30;0.80;;;;;;;2.88;100.00;95282.47;4925480;29;20261;-88
2021/12/27 00:17:04;;;;;;;1.00;0.90;;;;;;;2.85;100.00;95282.88;4925508;29;20225;-88
2021/12/27 00:19:32;;;;;;;1.43;1.10;;;;;;;2.84;100.00;95285.75;4930231;29;20269;-88
2021/12/27 00:21:59;;;;;;;1.20;1.10;;;;;;;2.82;100.00;95282.47;4938006;28;20216;-87
2021/12/27 00:24:27;;;;;;;0.87;0.83;;;;;;;2.71;100.00;95273.28;4928911;29;20234;-89
2021/12/27 00:26:54;;;;;;;1.30;1.13;;;;;;;2.73;100.00;95273.88;4928724;29;20213;-88
2021/12/27 00:29:22;;;;;;;2.43;1.20;;;;;;;2.66;100.00;95262.41;4925782;29;20237;-89
2021/12/27 00:31:49;;;;;;;3.10;1.07;;;;;;;2.73;100.00;95268.53;4921306;29;20226;-88
2021/12/27 00:34:16;;;;;;;0.93;0.90;;;;;;;2.76;100.00;95272.63;4928603;29;20205;-88
2021/12/27 00:36:44;;;;;;;1.07;0.97;;;;;;;2.77;100.00;95280.44;4928348;29;20232;-89
2021/12/27 00:39:11;;;;;;;1.40;1.10;;;;;;;2.82;100.00;95277.13;4935050;29;20213;-88
2021/12/27 00:41:39;;;;;;;1.10;0.83;;;;;;;2.85;100.00;95276.72;4928255;29;20234;-89
2021/12/27 00:44:06;;;;;;;1.20;0.93;;;;;;;2.82;100.00;95282.47;4929969;29;20198;-89
2021/12/27 00:46:33;;;;;;;1.03;0.93;;;;;;;2.84;100.00;95283.06;4948399;28;20221;-88
2021/12/27 00:49:00;;;;;;;1.47;1.10;;;;;;;2.85;100.00;95287.38;4933071;29;20205;-87
2021/12/27 00:51:28;;;;;;;0.73;0.73;;;;;;;2.84;100.00;95277.75;4931573;29;20235;-88
2021/12/27 00:53:55;;;;;;;1.20;1.10;;;;;;;2.80;100.00;95273.88;4930695;29;20214;-88
2021/12/27 00:56:22;;;;;;;1.70;1.10;;;;;;;2.82;100.00;95280.63;4924265;29;20213;-88
2021/12/27 00:58:50;;;;;;;1.57;1.00;;;;;;;2.83;100.00;95282.25;4930770;28;20205;-89
2021/12/27 01:01:17;;;;;;;1.03;1.00;;;;;;;2.79;100.00;95280.22;4924233;29;20214;-89
2021/12/27 01:03:45;;;;;;;1.30;1.13;;;;;;;2.79;100.00;95278.38;4933176;29;20213;-87
2021/12/27 01:06:12;;;;;;;1.20;1.10;;;;;;;2.70;100.00;95268.97;4934294;29;20229;-89
2021/12/27 01:08:39;;;;;;;1.90;1.30;;;;;;;2.74;100.00;95278.16;4928927;29;20201;-90
2021/12/27 01:11:23;;;;;;;0.97;0.93;;;;;;;2.76;100.00;95284.13;4927435;29;20226;-89
2021/12/27 01:14:03;;;;;;;2.50;0.90;;;;;;;2.86;100.00;95279.19;4949862;29;20244;-89
2021/12/27 01:16:31;;;;;;;0.90;0.90;;;;;;;2.92;100.00;95278.34;4933754;28;20210;-89
2021/12/27 01:18:58;;;;;;;1.70;0.80;;;;;;;2.94;100.00;95270.97;4926716;29;20308;-89
2021/12/27 01:21:26;;;;;;;0.87;0.83;;;;;;;2.90;100.00;95269.72;4930875;29;20229;-87
2021/12/27 01:23:55;;;;;;;1.83;1.33;;;;;;;2.91;100.00;95266.03;4933731;28;20286;-88
2021/12/27 01:26:25;;;;;;;2.70;1.80;;;;;;;2.89;100.00;95270.75;4927871;29;20225;-88
2021/12/27 01:28:54;;;;;;;2.63;1.73;;;;;;;2.85;100.00;95272.22;4930324;29;20226;-89
2021/12/27 01:31:21;;;;;;;4.60;2.07;;;;;;;2.79;100.00;95267.72;4932390;29;20213;-88
2021/12/27 01:33:48;;;;;;;1.87;1.43;;;;;;;2.81;100.00;95283.50;4924732;29;20214;-88
2021/12/27 01:36:16;;;;;;;1.17;1.07;;;;;;;2.83;100.00;95286.78;4928449;29;20237;-88
2021/12/27 01:38:44;;;;;;;1.20;1.10;;;;;;;2.89;100.00;95289.41;4931988;29;20224;-88
2021/12/27 01:41:13;;;;;;;2.13;1.20;;;;;;;2.88;100.00;95279.00;4926323;29;20205;-87
2021/12/27 01:43:41;;;;;;;1.33;0.90;;;;;;;2.88;100.00;95287.81;4931140;29;20209;-89
2021/12/27 01:46:14;;;;;;;1.10;1.00;;;;;;;2.95;100.00;95277.13;4926650;29;20268;-89
2021/12/27 01:48:45;;;;;;;0.80;0.80;;;;;;;3.00;100.00;95286.13;4923747;29;20259;-88
2021/12/27 01:51:14;;;;;;;0.97;0.90;;;;;;;3.08;100.00;95277.06;4930692;29;20205;-88
2021/12/27 01:53:44;;;;;;;0.90;0.90;;;;;;;3.18;100.00;95281.97;4928380;29;20236;-87
2021/12/27 01:56:12;;;;;;;1.17;0.93;;;;;;;3.20;100.00;95271.91;4943798;28;20206;-89
2021/12/27 01:58:39;;;;;;;1.10;1.00;;;;;;;3.26;100.00;95279.06;4929473;29;20233;-89
2021/12/27 02:01:11;;;;;;;0.70;0.70;;;;;;;3.24;100.00;95259.78;4923770;29;20221;-89
2021/12/27 02:03:40;;;;;;;1.13;0.90;;;;;;;3.31;100.00;95260.59;4928564;28;20205;-88
2021/12/27 02:06:08;;;;;;;0.80;0.80;;;;;;;3.33;100.00;95263.84;4932760;29;20272;-88
2021/12/27 02:08:41;;;;;;;0.80;0.80;;;;;;;3.29;100.00;95262.66;4925657;29;20217;-88
2021/12/27 02:11:08;;;;;;;0.70;0.70;;;;;;;3.26;100.00;95252.38;4921885;29;20213;-89
2021/12/27 02:13:41;;;;;;;1.03;0.83;;;;;;;3.33;100.00;95259.31;4931403;29;20245;-88
2021/12/27 02:16:10;;;;;;;0.70;0.70;;;;;;;3.34;100.00;95244.97;4928011;29;20214;-88
2021/12/27 02:18:39;;;;;;;0.93;0.87;;;;;;;3.47;100.00;95246.75;4928903;29;20217;-89
2021/12/27 02:21:08;;;;;;;1.00;0.70;;;;;;;3.53;100.00;95243.22;4927393;29;20209;-89
2021/12/27 02:23:37;;;;;;;0.80;0.80;;;;;;;3.64;100.00;95239.06;4924790;29;20301;-88
2021/12/27 02:26:05;;;;;;;0.70;0.70;;;;;;;3.69;100.00;95248.06;4928661;28;20228;-88
2021/12/27 02:28:32;;;;;;;1.37;1.00;;;;;;;3.67;100.00;95234.09;4925310;29;20234;-88
2021/12/27 02:30:59;;;;;;;1.97;0.97;;;;;;;3.66;100.00;95224.47;4936844;29;20205;-88
2021/12/27 02:33:26;;;;;;;0.80;0.80;;;;;;;3.69;100.00;95231.22;4928551;29;20206;-88
2021/12/27 02:35:57;;;;;;;0.80;0.70;;;;;;;3.65;100.00;95222.84;4932000;29;20324;-88
2021/12/27 02:38:28;;;;;;;1.00;0.83;;;;;;;3.66;100.00;95226.31;4931089;29;20308;-88
2021/12/27 02:40:56;;;;;;;0.93;0.90;;;;;;;3.68;100.00;95222.41;4924427;29;20297;-88
2021/12/27 02:43:25;;;;;;;1.57;1.27;;;;;;;3.74;100.00;95226.88;4932384;29;20292;-88
2021/12/27 02:45:53;;;;;;;0.73;0.73;;;;;;;3.71;100.00;95219.31;4928233;29;20233;-88
2021/12/27 02:48:23;;;;;;;0.80;0.77;;;;;;;3.58;100.00;95211.38;4930315;29;20208;-89
2021/12/27 02:50:51;;;;;;;0.70;0.70;;;;;;;3.59;100.00;95218.34;4945616;28;20210;-89
2021/12/27 02:53:18;;;;;;;0.70;0.70;;;;;;;3.58;100.00;95216.72;4922015;29;20220;-89
2021/12/27 02:55:48;;;;;;;1.50;0.70;;;;;;;3.56;100.00;95218.78;4923053;29;20210;-87
2021/12/27 02:58:16;;;;;;;0.83;0.70;;;;;;;3.49;100.00;95225.22;4927954;29;20202;-88
2021/12/27 03:00:46;;;;;;;1.27;0.80;;;;;;;3.45;100.00;95219.47;4927263;29;20206;-89
2021/12/27 03:03:13;;;;;;;0.80;0.80;;;;;;;3.42;100.00;95219.88;4924525;28;20216;-88
2021/12/27 03:05:43;;;;;;;0.67;0.67;;;;;;;3.42;100.00;95206.53;4927146;29;20339;-89
2021/12/27 03:08:14;;;;;;;0.70;0.70;;;;;;;3.33;100.00;95207.81;4923535;29;20308;-88
2021/12/27 03:10:42;;;;;;;0.70;0.70;;;;;;;3.26;100.00;95201.69;4932347;29;20470;-88
2021/12/27 03:13:16;;;;;;;0.60;0.60;;;;;;;3.25;100.00;95200.06;4922405;29;20206;-88
2021/12/27 03:15:43;;;;;;;0.50;0.50;;;;;;;3.21;100.00;95180.19;4928168;29;20217;-88
2021/12/27 03:18:11;;;;;;;0.60;0.60;;;;;;;3.19;100.00;95190.25;4946466;28;20232;-89
2021/12/27 03:20:39;;;;;;;0.60;0.60;;;;;;;3.11;100.00;95191.31;4922263;29;20281;-89
2021/12/27 03:23:06;;;;;;;0.60;0.60;;;;;;;3.07;100.00;95189.28;4933925;28;20312;-88
2021/12/27 03:25:34;;;;;;;0.97;0.80;;;;;;;3.06;100.00;95198.31;4923506;29;20225;-89
2021/12/27 03:28:03;;;;;;;0.60;0.60;;;;;;;2.93;100.00;95189.34;4927099;29;20232;-88
2021/12/27 03:30:31;;;;;;;0.80;0.70;;;;;;;2.85;100.00;95189.56;4926284;29;20213;-89
2021/12/27 03:32:59;;;;;;;1.13;1.00;;;;;;;2.84;100.00;95187.94;4925330;29;20296;-89
2021/12/27 03:35:28;;;;;;;1.43;0.97;;;;;;;2.85;100.00;95186.91;4929833;29;20240;-89
2021/12/27 03:37:58;;;;;;;0.80;0.80;;;;;;;2.81;100.00;95185.69;4915688;29;20214;-89
2021/12/27 03:40:27;;;;;;;1.00;0.80;;;;;;;2.84;100.00;95184.44;4928339;29;20264;-88
2021/12/27 03:42:56;;;;;;;0.83;0.80;;;;;;;2.82;100.00;95191.81;4927060;29;20220;-88
2021/12/27 03:45:25;;;;;;;0.73;0.73;;;;;;;2.77;100.00;95179.16;4923929;29;20238;-89
2021/12/27 03:47:54;;;;;;;0.70;0.70;;;;;;;2.77;100.00;95176.47;4925549;29;20245;-89
2021/12/27 03:50:24;;;;;;;0.73;0.73;;;;;;;2.83;100.00;95177.47;4925756;29;20297;-88
2021/12/27 03:52:52;;;;;;;1.30;0.90;;;;;;;2.75;100.00;95172.38;4929203;29;20220;-89
2021/12/27 03:55:19;;;;;;;0.77;0.70;;;;;;;2.70;100.00;95167.69;4937855;29;20264;-89
2021/12/27 03:57:52;;;;;;;1.73;0.90;;;;;;;2.69;100.00;95170.56;4926036;29;20214;-88
2021/12/27 04:00:32;;;;;;;0.90;0.80;;;;;;;2.71;100.00;95171.19;4920939;28;20305;-88
2021/12/27 04:03:02;;;;;;;0.80;0.80;;;;;;;2.71;100.00;95182.66;4926370;29;20215;-88
2021/12/27 04:05:30;;;;;;;0.60;0.60;;;;;;;2.70;100.00;95175.69;4935517;28;20322;-88
2021/12/27 04:08:02;;;;;;;0.60;0.60;;;;;;;2.73;100.00;95180.56;4929124;29;20371;-88
2021/12/27 04:10:30;;;;;;;1.40;0.60;;;;;;;2.80;100.00;95172.59;4928713;29;20234;-89
2021/12/27 04:12:58;;;;;;;1.23;0.90;;;;;;;2.84;100.00;95166.59;4923975;29;20217;-88
2021/12/27 04:15:25;;;;;;;0.97;0.60;;;;;;;2.94;100.00;95158.16;4924508;28;20209;-88
2021/12/27 04:17:53;;;;;;;0.80;0.80;;;;;;;2.96;100.00;95156.94;4928233;28;20216;-88
2021/12/27 04:20:22;;;;;;;1.23;0.70;;;;;;;2.93;100.00;95162.69;4924703;29;20221;-89
2021/12/27 04:22:50;;;;;;;0.80;0.80;;;;;;;2.92;100.00;95171.69;4941309;29;20573;-87
2021/12/27 04:25:19;;;;;;;0.70;0.70;;;;;;;2.82;100.00;95160.66;4929224;29;20216;-88
2021/12/27 04:27:47;;;;;;;0.60;0.60;;;;;;;2.75;100.00;95151.88;4923400;29;20230;-89
2021/12/27 04:30:16;;;;;;;1.27;0.70;;;;;;;2.70;100.00;95153.53;4922899;29;20253;-87
2021/12/27 04:32:43;;;;;;;0.83;0.77;;;;;;;2.64;100.00;95149.84;4921166;29;20205;-89
2021/12/27 04:35:11;;;;;;;0.70;0.57;;;;;;;2.66;100.00;95145.16;4928503;29;20241;-89
2021/12/27 04:37:40;;;;;;;0.60;0.60;;;;;;;2.60;100.00;95136.16;4934759;29;20322;-89
2021/12/27 04:40:11;;;;;;;0.57;0.57;;;;;;;2.67;100.00;95144.13;4916557;29;20242;-89
2021/12/27 04:42:42;;;;;;;0.60;0.60;;;;;;;2.70;100.00;95129.56;4928819;29;20241;-88
2021/12/27 04:45:11;;;;;;;0.60;0.60;;;;;;;2.78;100.00;95138.13;4927529;29;20304;-88
2021/12/27 04:47:39;;;;;;;0.50;0.50;;;;;;;2.89;100.00;95129.44;4926630;29;20205;-87
2021/12/27 04:50:07;;;;;;;0.60;0.60;;;;;;;3.06;100.00;95129.00;4929764;29;20271;-88
2021/12/27 04:52:35;;;;;;;0.70;0.70;;;;;;;3.10;100.00;95127.53;4949446;28;20216;-88
2021/12/27 04:55:05;;;;;;;0.60;0.60;;;;;;;3.18;100.00;95127.25;4930663;29;20205;-88
2021/12/27 04:57:32;;;;;;;0.70;0.70;;;;;;;3.18;100.00;95120.09;4931471;29;20308;-88
2021/12/27 05:00:00;;;;;;;1.20;0.90;;;;;;;3.06;100.00;95116.47;4932916;29;20236;-87
2021/12/27 05:02:27;;;;;;;0.70;0.70;;;;;;;3.06;100.00;95121.00;4928823;29;20229;-89
2021/12/27 05:04:55;;;;;;;0.70;0.70;;;;;;;3.02;100.00;95117.94;4928915;29;20217;-88
2021/12/27 05:07:22;;;;;;;0.60;0.60;;;;;;;2.96;100.00;95114.28;4930572;29;20225;-87
2021/12/27 05:09:49;;;;;;;1.97;1.13;;;;;;;2.87;100.00;95098.72;4931689;29;20319;-88
2021/12/27 05:12:18;;;;;;;0.50;0.50;;;;;;;2.84;100.00;95099.97;4933009;29;20198;-88
2021/12/27 05:14:45;;;;;;;0.70;0.70;;;;;;;2.82;100.00;95106.53;4929586;29;20301;-88
2021/12/27 05:17:12;;;;;;;0.93;0.67;;;;;;;2.77;100.00;95106.34;4947254;29;20209;-87
2021/12/27 05:19:39;;;;;;;2.27;1.83;;;;;;;2.69;100.00;95103.94;4923560;29;20271;-88
2021/12/27 05:22:06;;;;;;;1.90;1.37;;;;;;;2.60;100.00;95093.53;4925085;29;20233;-88
2021/12/27 05:24:33;;;;;;;1.90;1.63;;;;;;;2.58;100.00;95094.75;4931522;29;20217;-88
2021/12/27 05:27:01;;;;;;;1.57;1.30;;;;;;;2.47;100.00;95084.75;4924660;29;20308;-89
2021/12/27 05:29:29;;;;;;;1.47;1.37;;;;;;;2.47;100.00;95095.41;4929261;29;20225;-88
2021/12/27 05:32:01;;;;;;;2.03;1.43;;;;;;;2.46;100.00;95096.47;4931035;29;20237;-89
2021/12/27 05:34:28;;;;;;;2.47;1.23;;;;;;;2.36;100.00;95104.88;4936953;29;20213;-88
2021/12/27 05:36:55;;;;;;;2.10;1.50;;;;;;;2.21;100.00;95083.81;4936067;29;20240;-88
2021/12/27 05:39:22;;;;;;;2.03;1.50;;;;;;;2.19;100.00;95082.41;4930878;29;20209;-88
2021/12/27 05:41:50;;;;;;;2.20;1.60;;;;;;;2.15;100.00;95089.97;4932292;29;20206;-89
2021/12/27 05:44:18;;;;;;;1.30;1.03;;;;;;;2.19;100.00;95085.06;4924821;29;20228;-87
2021/12/27 05:46:46;;;;;;;1.47;1.23;;;;;;;2.10;100.00;95084.47;4943444;28;20240;-87
2021/12/27 05:49:15;;;;;;;1.60;1.40;;;;;;;2.08;100.00;95086.50;4927894;29;20211;-88
2021/12/27 05:51:43;;;;;;;2.53;1.77;;;;;;;2.03;100.00;95086.34;4922038;29;20210;-88
2021/12/27 05:54:12;;;;;;;1.63;1.20;;;;;;;2.01;100.00;95083.06;4932545;29;20213;-88
2021/12/27 05:56:39;;;;;;;1.43;1.27;;;;;;;1.94;100.00;95073.44;4932171;29;20206;-88
2021/12/27 05:59:06;;;;;;;1.57;1.23;;;;;;;1.96;100.00;95068.75;4931205;29;20340;-88
2021/12/27 06:01:33;;;;;;;1.30;1.20;;;;;;;1.98;100.00;95072.81;4930892;29;20337;-87
2021/12/27 06:04:02;;;;;;;1.10;1.00;;;;;;;2.01;100.00;95066.25;4920523;29;20315;-88
2021/12/27 06:06:29;;;;;;;1.10;1.00;;;;;;;2.04;100.00;95066.66;4926981;29;20300;-88
2021/12/27 06:08:56;;;;;;;2.87;1.30;;;;;;;2.01;100.00;95064.41;4942227;28;20225;-88
2021/12/27 06:11:23;;;;;;;2.20;1.40;;;;;;;1.97;100.00;95060.53;4943206;29;20217;-88
2021/12/27 06:13:50;;;;;;;3.30;1.10;;;;;;;2.11;100.00;95051.50;4929361;29;20273;-87
2021/12/27 06:16:18;;;;;;;1.30;1.20;;;;;;;2.00;100.00;95044.16;4924870;29;20208;-88
2021/12/27 06:18:45;;;;;;;2.57;1.40;;;;;;;1.98;100.00;95043.53;4930910;29;20213;-88
2021/12/27 06:21:13;;;;;;;1.30;1.10;;;;;;;2.01;100.00;95048.44;4931414;29;20210;-88
2021/12/27 06:23:40;;;;;;;1.57;1.40;;;;;;;2.04;100.00;95047.22;4930902;29;20224;-87
2021/12/27 06:26:07;;;;;;;2.27;1.73;;;;;;;1.99;100.00;95053.16;4927960;29;20232;-87
2021/12/27 06:28:35;;;;;;;4.37;2.07;;;;;;;1.96;100.00;95045.56;4930821;29;20233;-88
2021/12/27 06:31:02;;;;;;;2.20;1.70;;;;;;;1.95;100.00;95046.63;4924602;29;20289;-88
2021/12/27 06:33:30;;;;;;;2.20;1.60;;;;;;;1.96;100.00;95037.59;4925454;29;20224;-88
2021/12/27 06:35:58;;;;;;;1.57;1.47;;;;;;;1.94;100.00;95034.34;4921570;29;20328;-88
2021/12/27 06:38:27;;;;;;;1.13;1.03;;;;;;;1.91;100.00;95029.44;4943674;28;20213;-87
2021/12/27 06:40:55;;;;;;;1.10;1.00;;;;;;;1.96;100.00;95029.59;4930167;28;20260;-88
2021/12/27 06:43:22;;;;;;;1.93;1.50;;;;;;;1.95;100.00;95025.34;4926125;29;20205;-89
2021/12/27 06:45:49;;;;;;;1.73;1.47;;;;;;;1.88;100.00;95020.00;4923540;29;20230;-87
2021/12/27 06:48:16;;;;;;;1.83;1.60;;;;;;;1.82;100.00;95020.03;4927333;29;20202;-88
2021/12/27 06:50:44;;;;;;;1.97;1.60;;;;;;;1.78;100.00;95024.97;4947934;29;20212;-88
2021/12/27 06:53:11;;;;;;;2.00;1.40;;;;;;;1.82;100.00;95015.53;4947045;28;20216;-87
2021/12/27 06:55:40;;;;;;;1.50;1.30;;;;;;;1.80;100.00;95014.91;4945160;28;20220;-87
2021/12/27 06:58:07;;;;;;;2.40;1.70;;;;;;;1.76;100.00;95002.25;4938638;28;20213;-89
2021/12/27 07:00:34;;;;;;;1.53;1.43;;;;;;;1.73;100.00;94994.66;4924226;29;20236;-88
2021/12/27 07:03:01;;;;;;;2.13;1.57;;;;;;;1.67;100.00;94987.53;4929985;29;20454;-87
2021/12/27 07:05:28;;;;;;;2.27;1.40;;;;;;;1.68;100.00;94976.69;4921368;29;20210;-88
2021/12/27 07:07:56;;;;;;;1.67;1.47;;;;;;;1.68;100.00;94986.50;4928919;29;20297;-88
2021/12/27 07:10:23;;;;;;;2.57;1.70;;;;;;;1.65;100.00;94982.41;4929513;29;20209;-87
2021/12/27 07:12:52;;;;;;;2.00;1.77;;;;;;;1.68;100.00;94987.31;4929665;29;20289;-88
2021/12/27 07:15:19;;;;;;;2.07;1.87;;;;;;;1.68;100.00;94992.66;4946131;28;20252;-88
2021/12/27 07:17:46;;;;;;;3.13;1.97;;;;;;;1.69;100.00;94988.16;4932491;29;20209;-87
2021/12/27 07:20:14;;;;;;;3.30;2.57;;;;;;;1.66;100.00;94986.72;4933084;29;20213;-87
2021/12/27 07:22:41;;;;;;;3.37;2.70;;;;;;;1.64;100.00;94994.06;4928678;29;20257;-87
2021/12/27 07:25:08;;;;;;;3.07;2.27;;;;;;;1.66;100.00;94989.38;4927906;29;20272;-88
2021/12/27 07:27:36;;;;;;;3.83;2.67;;;;;;;1.64;100.00;94987.94;4929816;28;20327;-87
2021/12/27 07:30:08;;;;;;;4.27;2.30;;;;;;;1.67;100.00;94985.69;4929386;29;20220;-86
2021/12/27 07:32:35;;;;;;;3.37;2.40;;;;;;;1.65;100.00;94986.91;4927803;29;20212;-87
2021/12/27 07:35:02;;;;;;;7.30;4.80;;;;;;;1.68;100.00;94986.50;4931196;29;20225;-87
2021/12/27 07:37:31;;;;;;;6.60;4.70;;;;;;;1.62;100.00;94987.31;4928898;29;20205;-88
2021/12/27 07:39:58;;;;;;;7.37;5.03;;;;;;;1.62;100.00;94982.00;4931458;29;20210;-88
2021/12/27 07:42:25;;;;;;;5.40;4.23;;;;;;;1.60;100.00;94984.88;4930807;29;20272;-87
2021/12/27 07:44:53;;;;;;;5.97;4.13;;;;;;;1.55;100.00;94986.50;4933142;29;20251;-86
2021/12/27 07:47:21;;;;;;;4.10;3.70;;;;;;;1.55;100.00;94981.19;4935457;29;20231;-87
2021/12/27 07:49:48;;;;;;;5.27;4.13;;;;;;;1.48;100.00;94966.06;4929198;29;20224;-88
2021/12/27 07:52:15;;;;;;;4.77;3.93;;;;;;;1.47;100.00;94966.28;4928233;29;20209;-87
2021/12/27 07:54:43;;;;;;;5.13;4.40;;;;;;;1.47;100.00;94956.47;4929622;29;20202;-87
2021/12/27 07:57:11;;;;;;;4.97;4.00;;;;;;;1.47;100.00;94964.44;4943051;29;20209;-87
2021/12/27 07:59:38;;;;;;;4.83;4.00;;;;;;;1.53;100.00;94968.91;4925940;29;20218;-87
2021/12/27 08:02:06;;;;;;;5.70;3.27;;;;;;;1.52;100.00;94958.50;4929220;29;20263;-87
2021/12/27 08:04:34;;;;;;;5.23;3.90;;;;;;;1.50;100.00;94958.72;4924657;29;20205;-87
2021/12/27 08:07:01;;;;;;;5.03;3.80;;;;;;;1.53;100.00;94970.78;4927671;29;20231;-87
2021/12/27 08:09:28;;;;;;;5.40;4.03;;;;;;;1.55;100.00;94975.88;4933113;29;20317;-88
2021/12/27 08:11:55;;;;;;;8.23;4.33;;;;;;;1.55;100.00;94960.72;4925007;29;20220;-87
2021/12/27 08:14:22;;;;;;;5.10;3.60;;;;;;;1.69;100.00;94966.84;4913932;29;20238;-88
2021/12/27 08:16:50;;;;;;;6.77;4.47;;;;;;;1.70;100.00;94965.84;4925523;29;20225;-87
2021/12/27 08:19:17;;;;;;;4.80;2.90;;;;;;;1.71;100.00;94951.47;4929794;28;20216;-87
2021/12/27 08:21:45;;;;;;;3.07;2.60;;;;;;;1.77;100.00;94961.31;4924226;29;20256;-86
2021/12/27 08:24:12;;;;;;;6.30;4.40;;;;;;;1.76;100.00;94951.69;4926559;29;20300;-87
2021/12/27 08:26:40;;;;;;;5.03;4.10;;;;;;;1.84;100.00;94956.78;4935939;28;20244;-87
2021/12/27 08:29:16;;;;;;;6.00;4.37;;;;;;;1.91;100.00;94957.56;4932924;29;20253;-86
2021/12/27 08:31:43;;;;;;;5.57;3.87;;;;;;;1.89;100.00;94948.97;4932771;29;20217;-86
2021/12/27 08:34:11;;;;;;;9.30;5.03;;;;;;;2.03;100.00;94952.41;4929261;29;20212;-88
2021/12/27 08:36:38;;;;;;;8.43;4.90;;;;;;;2.08;100.00;94956.06;4923881;29;20244;-87
2021/12/27 08:39:06;;;;;;;6.97;4.60;;;;;;;2.12;100.00;94949.28;4919511;29;20219;-87
2021/12/27 08:41:33;;;;;;;8.63;4.57;;;;;;;2.17;100.00;94941.47;4932561;29;20301;-88
2021/12/27 08:44:04;;;;;;;5.07;3.60;;;;;;;2.24;100.00;94960.91;4932517;29;20284;-87
2021/12/27 08:46:31;;;;;;;9.40;4.73;;;;;;;2.29;100.00;94957.59;4930403;29;20315;-87
2021/12/27 08:48:58;;;;;;;7.27;4.40;;;;;;;2.34;100.00;94948.97;4925698;29;20210;-87
2021/12/27 08:51:26;;;;;;;6.60;4.70;;;;;;;2.34;100.00;94943.63;4925594;29;20214;-88
2021/12/27 08:53:54;;;;;;;11.13;6.17;;;;;;;2.37;100.00;94949.38;4925681;29;20208;-89
2021/12/27 08:56:22;;;;;;;10.07;6.13;;;;;;;2.41;100.00;94939.09;4925360;29;20238;-88
2021/12/27 08:58:49;;;;;;;8.23;5.50;;;;;;;2.49;100.00;94941.50;4923672;29;20217;-88
2021/12/27 09:01:16;;;;;;;7.23;4.60;;;;;;;2.52;100.00;94936.56;4923813;29;20228;-88
2021/12/27 09:03:44;;;;;;;8.27;3.90;;;;;;;2.55;100.00;94936.13;4943974;28;20209;-87
2021/12/27 09:06:11;;;;;;;6.00;4.17;;;;;;;2.63;100.00;94927.06;4930042;29;20219;-87
2021/12/27 09:08:38;;;;;;;5.57;4.30;;;;;;;2.70;100.00;94927.03;4932435;29;20225;-88
2021/12/27 09:11:05;;;;;;;6.50;4.20;;;;;;;2.77;100.00;94939.25;4927261;29;20212;-88
2021/12/27 09:13:39;;;;;;;5.63;2.60;;;;;;;2.82;100.00;94939.41;4927119;29;20203;-87
2021/12/27 09:16:10;;;;;;;3.83;2.60;;;;;;;2.79;100.00;94933.72;4927391;29;20216;-87
2021/12/27 09:18:37;;;;;;;3.10;2.17;;;;;;;2.83;100.00;94934.91;4943835;28;20224;-88
2021/12/27 09:21:06;;;;;;;4.40;2.83;;;;;;;2.86;100.00;94932.63;4936013;29;20209;-88
2021/12/27 09:23:34;;;;;;;3.27;2.50;;;;;;;2.94;100.00;94921.69;4939926;29;20229;-88
2021/12/27 09:26:01;;;;;;;5.03;3.10;;;;;;;3.01;100.00;94935.78;4940886;29;20198;-87
2021/12/27 09:28:28;;;;;;;5.07;3.20;;;;;;;3.18;100.00;94944.06;4925465;29;20237;-89
2021/12/27 09:30:57;;;;;;;6.70;3.23;;;;;;;3.17;100.00;94922.94;4930116;29;20220;-88
2021/12/27 09:33:24;;;;;;;6.60;3.30;;;;;;;3.28;100.00;94930.22;4931941;29;20209;-87
2021/12/27 09:35:51;;;;;;;4.10;3.40;;;;;;;3.31;100.00;94938.63;4930929;29;20320;-88
2021/12/27 09:38:19;;;;;;;4.57;3.00;;;;;;;3.46;100.00;94924.91;4925460;29;20998;-88
2021/12/27 09:40:46;;;;;;;3.83;2.70;;;;;;;3.61;100.00;94908.53;4943667;28;20514;-88
2021/12/27 09:43:14;;;;;;;3.40;2.87;;;;;;;3.71;100.00;94916.84;4920697;29;20222;-87
2021/12/27 09:45:42;;;;;;;4.23;2.33;;;;;;;3.90;100.00;94931.00;4932618;29;20244;-87
2021/12/27 09:48:13;;;;;;;6.40;3.47;;;;;;;3.98;100.00;94917.38;4923910;29;20230;-88
2021/12/27 09:50:45;;;;;;;3.07;2.00;;;;;;;4.08;100.00;94896.28;4931697;28;20214;-88
2021/12/27 09:53:13;;;;;;;3.57;2.23;;;;;;;4.30;100.00;94924.13;4931662;29;20209;-88
2021/12/27 09:55:40;;;;;;;2.13;1.60;;;;;;;4.47;100.00;94887.72;4925852;29;20221;-87
2021/12/27 09:58:07;;;;;;;4.53;1.80;;;;;;;4.66;100.00;94890.31;4928338;29;20304;-88
2021/12/27 10:00:36;;;;;;;1.60;1.50;;;;;;;4.78;100.00;94880.44;4945030;28;20210;-88
2021/12/27 10:03:03;;;;;;;3.50;1.67;;;;;;;4.87;100.00;94879.88;4920844;29;20207;-89
2021/12/27 10:05:33;;;;;;;4.97;2.00;;;;;;;4.92;100.00;94874.69;4939797;28;20202;-88
2021/12/27 10:08:01;;;;;;;2.57;1.93;;;;;;;4.92;100.00;94868.53;4928540;29;20253;-89
2021/12/27 10:10:28;;;;;;;2.37;1.87;;;;;;;5.03;100.00;94873.03;4921907;29;20316;-88
2021/12/27 10:12:55;;;;;;;1.50;1.40;;;;;;;5.08;100.00;94872.38;4926637;29;20239;-88
2021/12/27 10:15:32;;;;;;;2.53;1.50;;;;;;;5.16;100.00;94854.09;4945030;28;20210;-87
2021/12/27 10:18:08;;;;;;;2.63;1.90;;;;;;;5.15;100.00;94863.16;4914603;29;20256;-88
2021/12/27 10:20:37;;;;;;;2.07;1.57;;;;;;;5.15;100.00;94841.78;4936093;29;20261;-88
2021/12/27 10:23:04;;;;;;;4.10;2.93;;;;;;;5.27;100.00;94834.53;4929984;29;20234;-88
2021/12/27 10:25:32;;;;;;;2.60;1.83;;;;;;;5.28;100.00;94841.50;4922747;29;20214;-87
2021/12/27 10:28:01;;;;;;;2.30;2.00;;;;;;;5.35;100.00;94840.59;4927091;28;20319;-87
2021/12/27 10:30:30;;;;;;;2.70;2.03;;;;;;;5.39;100.00;94844.41;4928578;29;20221;-89
2021/12/27 10:33:09;;;;;;;2.37;1.93;;;;;;;5.41;100.00;94834.31;4925241;29;20224;-88
2021/12/27 10:35:40;;;;;;;2.87;2.00;;;;;;;5.35;100.00;94836.06;4927324;29;20239;-89
2021/12/27 10:38:16;;;;;;;3.77;2.30;;;;;;;5.41;100.00;94836.97;4924626;29;20221;-88
2021/12/27 10:40:50;;;;;;;2.80;2.30;;;;;;;5.46;100.00;94829.03;4927139;29;20304;-88
2021/12/27 10:43:19;;;;;;;1.57;1.30;;;;;;;5.88;100.00;94835.84;4938906;28;20234;-88
2021/12/27 10:45:47;;;;;;;1.50;1.23;;;;;;;6.42;100.00;94820.25;4926746;29;20197;-89
2021/12/27 10:48:21;;;;;;;1.17;1.00;;;;;;;7.52;83.84;94811.47;4925080;29;20225;-90
2021/12/27 10:50:50;;;;;;;0.80;0.80;;;;;;;9.07;67.02;94802.63;4924550;29;20244;-88
2021/12/27 10:53:18;;;;;;;2.60;1.70;;;;;;;9.14;81.37;94796.22;4939239;29;20216;-89
2021/12/27 10:55:48;;;;;;;0.60;0.60;;;;;;;9.66;64.22;94807.84;4941087;28;20214;-88
2021/12/27 10:58:19;;;;;;;1.63;1.30;;;;;;;9.60;70.84;94803.50;4923036;29;20221;-90
2021/12/27 11:00:49;;;;;;;2.43;1.70;;;;;;;8.82;87.77;94804.31;4937537;29;20210;-89
2021/12/27 11:03:27;;;;;;;3.30;1.93;;;;;;;7.80;95.10;94803.25;4923446;29;20478;-89
2021/12/27 11:05:57;;;;;;;1.20;1.00;;;;;;;8.42;73.89;94802.09;4920791;29;20213;-89
2021/12/27 11:08:26;;;;;;;1.50;1.40;;;;;;;8.47;85.08;94810.19;4940014;29;20238;-89
2021/12/27 11:10:54;;;;;;;2.53;1.80;;;;;;;7.91;96.00;94793.44;4942083;29;20220;-89
2021/12/27 11:13:21;;;;;;;2.60;2.00;;;;;;;7.71;94.67;94795.88;4924171;29;20213;-89
2021/12/27 11:15:48;;;;;;;1.70;1.47;;;;;;;7.21;100.00;94775.34;4930428;29;20313;-88
2021/12/27 11:18:16;;;;;;;1.97;1.57;;;;;;;7.15;100.00;94779.00;4924607;29;20213;-88
2021/12/27 11:20:45;;;;;;;1.83;1.50;;;;;;;6.92;100.00;94782.72;4927213;29;20256;-88
2021/12/27 11:23:15;;;;;;;2.90;1.63;;;;;;;6.76;100.00;94773.63;4928013;29;20206;-88
2021/12/27 11:25:44;;;;;;;1.60;1.20;;;;;;;7.32;94.18;94777.09;4922631;29;20268;-90
2021/12/27 11:28:29;;;;;;;2.90;1.50;;;;;;;7.66;96.15;94801.97;4929106;29;20235;-85
2021/12/27 11:30:58;;;;;;;1.77;1.50;;;;;;;7.26;100.00;94786.16;4940328;29;20212;-86
2021/12/27 11:33:26;;;;;;;2.00;1.67;;;;;;;6.98;100.00;94770.97;4928556;28;20233;-87
2021/12/27 11:36:09;;;;;;;2.53;1.80;;;;;;;7.04;100.00;94790.69;4927321;29;20294;-86
2021/12/27 11:38:39;;;;;;;2.30;1.60;;;;;;;7.07;100.00;94800.91;4929964;29;20202;-86
2021/12/27 11:41:28;;;;;;;3.07;1.60;;;;;;;7.04;100.00;94779.94;4929590;28;20224;-86